createdAt,value
2023-08-14T00:03:13.987Z,0.00
2023-08-14T00:06:28.818Z,0.00
2023-08-14T00:07:29.836Z,0.00
2023-08-14T00:08:29.809Z,0.00
2023-08-14T00:09:29.804Z,0.00
2023-08-14T00:10:29.771Z,0.00
2023-08-14T00:11:29.766Z,0.00
2023-08-14T00:12:29.765Z,0.00
2023-08-14T00:13:29.865Z,0.00
2023-08-14T00:14:29.737Z,0.00
2023-08-14T00:15:29.877Z,0.00
2023-08-14T00:16:29.724Z,0.00
2023-08-14T00:17:29.708Z,0.00
2023-08-14T00:18:29.684Z,0.00
2023-08-14T00:19:29.673Z,0.00
2023-08-14T00:20:29.672Z,0.00
2023-08-14T00:21:29.629Z,0.00
2023-08-14T00:22:29.622Z,0.00
2023-08-14T00:23:29.612Z,0.00
2023-08-14T00:24:29.611Z,0.00
2023-08-14T00:25:29.602Z,0.00
2023-08-14T00:26:29.562Z,0.00
2023-08-14T00:27:29.549Z,0.00
2023-08-14T00:28:29.535Z,0.00
2023-08-14T00:29:29.525Z,0.00
2023-08-14T00:30:29.549Z,0.00
2023-08-14T00:31:29.599Z,0.00
2023-08-14T00:32:29.486Z,0.00
2023-08-14T00:33:29.481Z,0.00
2023-08-14T00:34:29.464Z,0.00
2023-08-14T00:35:29.462Z,0.00
2023-08-14T00:36:29.427Z,0.00
2023-08-14T00:37:29.442Z,0.00
2023-08-14T00:38:29.408Z,0.00
2023-08-14T00:39:29.405Z,0.00
2023-08-14T00:40:29.412Z,0.00
2023-08-14T00:41:29.359Z,0.00
2023-08-14T00:42:29.365Z,0.00
2023-08-14T00:43:29.347Z,0.00
2023-08-14T00:44:29.335Z,0.00
2023-08-14T00:45:36.899Z,0.00
2023-08-14T00:46:29.333Z,0.00
2023-08-14T00:47:29.353Z,0.00
2023-08-14T00:48:29.279Z,0.00
2023-08-14T00:49:29.277Z,0.00
2023-08-14T00:50:29.254Z,0.00
2023-08-14T00:51:29.249Z,0.00
2023-08-14T00:52:29.228Z,0.00
2023-08-14T00:53:29.219Z,0.00
2023-08-14T00:54:29.237Z,0.00
2023-08-14T00:55:29.228Z,0.00
2023-08-14T00:56:29.187Z,0.00
2023-08-14T00:57:29.178Z,0.00
2023-08-14T00:58:29.135Z,0.00
2023-08-14T00:59:29.145Z,0.00
2023-08-14T01:00:29.186Z,0.00
2023-08-14T01:01:29.122Z,0.00
2023-08-14T01:02:29.136Z,0.00
2023-08-14T01:03:29.127Z,0.00
2023-08-14T01:04:29.060Z,0.00
2023-08-14T01:05:29.071Z,0.00
2023-08-14T01:06:29.041Z,0.00
2023-08-14T01:07:29.044Z,0.00
2023-08-14T01:08:29.006Z,0.00
2023-08-14T01:09:29.009Z,0.00
2023-08-14T01:10:29.010Z,0.00
2023-08-14T01:11:28.976Z,0.00
2023-08-14T01:12:28.969Z,0.00
2023-08-14T01:13:30.860Z,0.00
2023-08-14T01:14:28.936Z,0.00
2023-08-14T01:15:28.930Z,0.00
2023-08-14T01:16:29.075Z,0.00
2023-08-14T01:17:31.678Z,0.00
2023-08-14T01:18:28.892Z,0.00
2023-08-14T01:19:28.890Z,0.00
2023-08-14T01:20:28.883Z,0.00
2023-08-14T01:21:28.857Z,0.00
2023-08-14T01:22:28.885Z,0.00
2023-08-14T01:23:28.821Z,0.00
2023-08-14T01:24:28.821Z,0.00
2023-08-14T01:25:28.814Z,0.00
2023-08-14T01:26:28.786Z,0.00
2023-08-14T01:27:28.807Z,0.00
2023-08-14T01:28:28.769Z,0.00
2023-08-14T01:29:28.746Z,0.00
2023-08-14T01:30:28.779Z,0.00
2023-08-14T01:31:28.731Z,0.00
2023-08-14T01:32:28.802Z,0.00
2023-08-14T01:33:28.796Z,0.00
2023-08-14T01:34:28.677Z,0.00
2023-08-14T01:35:28.661Z,0.00
2023-08-14T01:36:28.680Z,0.00
2023-08-14T01:39:15.212Z,0.00
2023-08-14T01:40:26.206Z,0.00
2023-08-14T01:41:30.208Z,0.00
2023-08-14T01:42:16.409Z,0.00
2023-08-14T01:43:16.160Z,0.00
2023-08-14T01:44:16.180Z,0.00
2023-08-14T01:45:16.142Z,0.00
2023-08-14T01:46:16.162Z,0.00
2023-08-14T01:47:16.111Z,0.00
2023-08-14T01:48:16.102Z,0.00
2023-08-14T01:49:16.071Z,0.00
2023-08-14T01:50:16.081Z,0.00
2023-08-14T01:51:16.043Z,0.00
2023-08-14T01:52:16.412Z,0.00
2023-08-14T01:53:16.016Z,0.00
2023-08-14T01:54:16.012Z,0.00
2023-08-14T01:55:16.006Z,0.00
2023-08-14T01:56:16.018Z,0.00
2023-08-14T01:57:15.991Z,0.00
2023-08-14T01:58:15.965Z,0.00
2023-08-14T01:59:15.936Z,0.00
2023-08-14T02:00:15.936Z,0.00
2023-08-14T02:01:15.932Z,0.00
2023-08-14T02:02:16.490Z,0.00
2023-08-14T02:03:15.992Z,0.00
2023-08-14T02:04:15.879Z,0.00
2023-08-14T02:05:15.867Z,0.00
2023-08-14T02:06:15.891Z,0.00
2023-08-14T02:07:15.853Z,0.00
2023-08-14T02:08:15.875Z,0.00
2023-08-14T02:09:15.823Z,0.00
2023-08-14T02:10:15.824Z,0.00
2023-08-14T02:11:15.797Z,0.00
2023-08-14T02:12:16.069Z,0.00
2023-08-14T02:13:15.810Z,0.00
2023-08-14T02:14:15.777Z,0.00
2023-08-14T02:15:15.749Z,0.00
2023-08-14T02:16:15.764Z,0.00
2023-08-14T02:17:15.735Z,0.00
2023-08-14T02:18:15.722Z,0.00
2023-08-14T02:19:15.851Z,0.00
2023-08-14T02:20:15.708Z,0.00
2023-08-14T02:21:15.689Z,0.00
2023-08-14T02:22:15.939Z,0.00
2023-08-14T02:23:26.892Z,0.00
2023-08-14T02:24:15.633Z,0.00
2023-08-14T02:25:15.622Z,0.00
2023-08-14T02:26:15.650Z,0.00
2023-08-14T02:30:19.646Z,0.00
2023-08-14T02:31:20.679Z,0.00
2023-08-14T02:32:21.065Z,0.00
2023-08-14T02:33:20.611Z,0.00
2023-08-14T02:34:20.572Z,0.00
2023-08-14T02:35:20.610Z,0.00
2023-08-14T02:36:20.575Z,0.00
2023-08-14T02:37:20.552Z,0.00
2023-08-14T02:38:20.538Z,0.00
2023-08-14T02:39:20.520Z,0.00
2023-08-14T02:40:20.497Z,0.00
2023-08-14T02:41:20.486Z,0.00
2023-08-14T02:42:20.716Z,0.00
2023-08-14T02:43:20.483Z,0.00
2023-08-14T02:44:20.474Z,0.00
2023-08-14T02:45:20.441Z,0.00
2023-08-14T02:46:20.427Z,0.00
2023-08-14T02:47:20.424Z,0.00
2023-08-14T02:48:20.405Z,0.00
2023-08-14T02:49:20.617Z,0.00
2023-08-14T02:50:20.370Z,0.00
2023-08-14T02:51:20.361Z,0.00
2023-08-14T02:52:20.499Z,0.00
2023-08-14T02:53:20.337Z,0.00
2023-08-14T02:54:20.315Z,0.00
2023-08-14T02:55:20.324Z,0.00
2023-08-14T02:56:20.334Z,0.00
2023-08-14T02:57:20.329Z,0.00
2023-08-14T02:58:20.300Z,0.00
2023-08-14T02:59:20.266Z,0.00
2023-08-14T03:00:20.241Z,0.00
2023-08-14T03:01:20.294Z,0.00
2023-08-14T03:02:20.636Z,0.00
2023-08-14T03:03:20.273Z,0.00
2023-08-14T03:04:20.238Z,0.00
2023-08-14T03:05:20.197Z,0.00
2023-08-14T03:06:20.169Z,0.00
2023-08-14T03:07:20.247Z,0.00
2023-08-14T03:08:20.163Z,0.00
2023-08-14T03:09:20.132Z,0.00
2023-08-14T03:10:20.169Z,0.00
2023-08-14T03:11:20.110Z,0.00
2023-08-14T03:12:20.324Z,0.00
2023-08-14T03:13:20.129Z,0.00
2023-08-14T03:14:20.080Z,0.00
2023-08-14T03:15:20.059Z,0.00
2023-08-14T03:16:20.089Z,0.00
2023-08-14T03:17:20.023Z,0.00
2023-08-14T03:18:20.028Z,0.00
2023-08-14T03:19:20.023Z,0.00
2023-08-14T03:20:20.013Z,0.00
2023-08-14T03:21:19.981Z,0.00
2023-08-14T03:22:20.271Z,0.00
2023-08-14T03:23:19.955Z,0.00
2023-08-14T03:24:19.976Z,0.00
2023-08-14T03:25:19.950Z,0.00
2023-08-14T03:26:19.935Z,0.00
2023-08-14T03:27:19.874Z,1.00
2023-08-14T03:28:19.890Z,0.00
2023-08-14T03:29:19.888Z,0.00
2023-08-14T03:30:19.880Z,0.00
2023-08-14T03:31:19.857Z,1.00
2023-08-14T03:32:20.126Z,1.00
2023-08-14T03:33:19.777Z,1.00
2023-08-14T03:34:19.831Z,0.00
2023-08-14T03:35:19.827Z,0.00
2023-08-14T03:36:19.768Z,2.00
2023-08-14T03:37:19.755Z,1.00
2023-08-14T03:38:19.729Z,1.00
2023-08-14T03:39:19.727Z,2.00
2023-08-14T03:40:19.688Z,2.00
2023-08-14T03:41:19.679Z,3.00
2023-08-14T03:42:19.960Z,7.00
2023-08-14T03:43:19.667Z,8.00
2023-08-14T03:44:19.682Z,5.00
2023-08-14T03:45:19.663Z,5.00
2023-08-14T03:46:19.659Z,7.00
2023-08-14T03:47:19.609Z,8.00
2023-08-14T03:48:19.588Z,10.00
2023-08-14T03:49:19.618Z,12.00
2023-08-14T03:50:19.573Z,15.00
2023-08-14T03:51:19.559Z,16.00
2023-08-14T03:52:19.887Z,20.00
2023-08-14T03:53:19.558Z,29.00
2023-08-14T03:54:19.522Z,28.00
2023-08-14T03:55:19.544Z,34.00
2023-08-14T03:56:19.494Z,41.00
2023-08-14T03:57:19.487Z,49.00
2023-08-14T03:58:19.473Z,55.00
2023-08-14T03:59:19.479Z,65.00
2023-08-14T04:00:19.436Z,72.00
2023-08-14T04:01:19.435Z,83.00
2023-08-14T04:02:19.706Z,96.00
2023-08-14T04:03:19.539Z,114.00
2023-08-14T04:04:19.387Z,125.00
2023-08-14T04:05:19.399Z,144.00
2023-08-14T04:06:19.391Z,161.00
2023-08-14T04:07:19.387Z,183.00
2023-08-14T04:08:19.344Z,206.00
2023-08-14T04:09:19.333Z,228.00
2023-08-14T04:10:19.333Z,250.00
2023-08-14T04:11:19.299Z,281.00
2023-08-14T04:12:19.559Z,308.00
2023-08-14T04:13:19.297Z,340.00
2023-08-14T04:14:19.267Z,369.00
2023-08-14T04:15:19.265Z,402.00
2023-08-14T04:16:19.284Z,442.00
2023-08-14T04:17:19.257Z,475.00
2023-08-14T04:18:19.242Z,515.00
2023-08-14T04:19:19.286Z,553.00
2023-08-14T04:20:19.190Z,596.00
2023-08-14T04:21:19.178Z,644.00
2023-08-14T04:22:19.494Z,693.00
2023-08-14T04:23:19.164Z,741.00
2023-08-14T04:24:19.144Z,794.00
2023-08-14T04:25:19.143Z,847.00
2023-08-14T04:26:19.129Z,901.00
2023-08-14T04:27:19.100Z,958.00
2023-08-14T04:28:19.092Z,1011.00
2023-08-14T04:29:19.096Z,1072.00
2023-08-14T04:30:19.059Z,1138.00
2023-08-14T04:31:19.122Z,1202.00
2023-08-14T04:32:19.248Z,1267.00
2023-08-14T04:33:19.026Z,1334.00
2023-08-14T04:34:19.026Z,1379.00
2023-08-14T04:35:19.059Z,1456.00
2023-08-14T04:36:19.001Z,1534.00
2023-08-14T04:37:18.991Z,1582.00
2023-08-14T04:38:18.971Z,1535.00
2023-08-14T04:39:18.967Z,1668.00
2023-08-14T04:40:18.993Z,1837.00
2023-08-14T04:41:18.927Z,1904.00
2023-08-14T04:42:19.152Z,1997.00
2023-08-14T04:43:18.918Z,2088.00
2023-08-14T04:44:18.904Z,2134.00
2023-08-14T04:45:18.933Z,2194.00
2023-08-14T04:46:18.901Z,2366.00
2023-08-14T04:47:18.853Z,2476.00
2023-08-14T04:48:18.908Z,2586.00
2023-08-14T04:49:18.855Z,2700.00
2023-08-14T04:50:18.825Z,2790.00
2023-08-14T04:51:18.803Z,2883.00
2023-08-14T04:52:19.008Z,2998.00
2023-08-14T04:53:18.772Z,3089.00
2023-08-14T04:54:18.767Z,3206.00
2023-08-14T04:55:18.792Z,3295.00
2023-08-14T04:56:18.733Z,3354.00
2023-08-14T04:57:18.737Z,3467.00
2023-08-14T04:58:21.849Z,3595.00
2023-08-14T04:59:18.723Z,3729.00
2023-08-14T05:00:18.739Z,3787.00
2023-08-14T05:01:18.770Z,3813.00
2023-08-14T05:02:18.964Z,3756.00
2023-08-14T05:03:18.679Z,3973.00
2023-08-14T05:04:18.713Z,4123.00
2023-08-14T05:05:18.643Z,4336.00
2023-08-14T05:06:18.639Z,4413.00
2023-08-14T05:07:18.627Z,4370.00
2023-08-14T05:08:18.584Z,4075.00
2023-08-14T05:09:26.643Z,5039.00
2023-08-14T05:10:18.594Z,6910.00
2023-08-14T05:11:18.559Z,7018.00
2023-08-14T05:12:18.753Z,6284.00
2023-08-14T05:13:18.563Z,6217.00
2023-08-14T05:14:18.515Z,6019.00
2023-08-14T05:15:18.499Z,6953.00
2023-08-14T05:16:18.497Z,7526.00
2023-08-14T05:17:18.472Z,7071.00
2023-08-14T05:18:18.463Z,7066.00
2023-08-14T05:19:29.453Z,7300.00
2023-08-14T05:20:18.446Z,7196.00
2023-08-14T05:21:18.432Z,7354.00
2023-08-14T05:22:18.592Z,7846.00
2023-08-14T05:23:18.395Z,7522.00
2023-08-14T05:24:18.417Z,7409.00
2023-08-14T05:25:18.389Z,7769.00
2023-08-14T05:26:18.366Z,7927.00
2023-08-14T05:27:18.339Z,7883.00
2023-08-14T05:28:18.354Z,7983.00
2023-08-14T05:29:18.337Z,8610.00
2023-08-14T05:30:18.354Z,8752.00
2023-08-14T05:31:18.323Z,7508.00
2023-08-14T05:32:18.496Z,9164.00
2023-08-14T05:33:18.289Z,7164.00
2023-08-14T05:34:18.257Z,9881.00
2023-08-14T05:35:18.261Z,7864.00
2023-08-14T05:36:18.240Z,7807.00
2023-08-14T05:37:18.234Z,11559.00
2023-08-14T05:38:18.211Z,8679.00
2023-08-14T05:39:18.208Z,9667.00
2023-08-14T05:40:18.181Z,11290.00
2023-08-14T05:41:18.160Z,8689.00
2023-08-14T05:42:18.581Z,12041.00
2023-08-14T05:43:18.135Z,10719.00
2023-08-14T05:44:18.133Z,7971.00
2023-08-14T05:45:18.242Z,13464.00
2023-08-14T05:46:18.118Z,12104.00
2023-08-14T05:47:18.114Z,13986.00
2023-08-14T05:48:18.101Z,10371.00
2023-08-14T05:49:18.174Z,14241.00
2023-08-14T05:50:18.073Z,18870.00
2023-08-14T05:51:18.106Z,12697.00
2023-08-14T05:52:18.296Z,15279.00
2023-08-14T05:53:18.020Z,14210.00
2023-08-14T05:54:18.253Z,15954.00
2023-08-14T05:55:18.031Z,19136.00
2023-08-14T05:56:18.008Z,12985.00
2023-08-14T05:57:17.978Z,17273.00
2023-08-14T05:58:17.976Z,17577.00
2023-08-14T05:59:17.946Z,20137.00
2023-08-14T06:00:17.949Z,22023.00
2023-08-14T06:01:17.986Z,20048.00
2023-08-14T06:02:18.284Z,17245.00
2023-08-14T06:03:28.971Z,17582.00
2023-08-14T06:04:17.958Z,15013.00
2023-08-14T06:05:17.886Z,15059.00
2023-08-14T06:06:17.885Z,16597.00
2023-08-14T06:07:17.845Z,14014.00
2023-08-14T06:08:17.846Z,21176.00
2023-08-14T06:09:17.822Z,14558.00
2023-08-14T06:10:17.812Z,15208.00
2023-08-14T06:11:17.786Z,13668.00
2023-08-14T06:12:18.899Z,14231.00
2023-08-14T06:13:17.762Z,17599.00
2023-08-14T06:14:17.775Z,21506.00
2023-08-14T06:15:17.790Z,21389.00
2023-08-14T06:16:17.731Z,16399.00
2023-08-14T06:17:17.706Z,17564.00
2023-08-14T06:18:17.714Z,17661.00
2023-08-14T06:19:17.686Z,16889.00
2023-08-14T06:20:53.474Z,14861.00
2023-08-14T06:21:17.686Z,15689.00
2023-08-14T06:22:17.847Z,15595.00
2023-08-14T06:23:17.638Z,14224.00
2023-08-14T06:24:17.663Z,15069.00
2023-08-14T06:25:17.617Z,15366.00
2023-08-14T06:26:17.596Z,12496.00
2023-08-14T06:27:17.587Z,16006.00
2023-08-14T06:28:17.569Z,13333.00
2023-08-14T06:29:17.566Z,14788.00
2023-08-14T06:30:17.560Z,13378.00
2023-08-14T06:31:17.620Z,13780.00
2023-08-14T06:32:17.919Z,16472.00
2023-08-14T06:33:17.545Z,18619.00
2023-08-14T06:34:17.516Z,17387.00
2023-08-14T06:35:17.499Z,18459.00
2023-08-14T06:36:17.517Z,15643.00
2023-08-14T06:37:17.482Z,20368.00
2023-08-14T06:38:17.454Z,20323.00
2023-08-14T06:39:17.439Z,21126.00
2023-08-14T06:40:17.428Z,16408.00
2023-08-14T06:41:17.443Z,20263.00
2023-08-14T06:42:17.678Z,18476.00
2023-08-14T06:43:17.383Z,16041.00
2023-08-14T06:44:17.408Z,10263.00
2023-08-14T06:45:17.360Z,28588.00
2023-08-14T06:46:17.366Z,17185.00
2023-08-14T06:47:17.431Z,19065.00
2023-08-14T06:48:17.366Z,16101.00
2023-08-14T06:49:17.317Z,15803.00
2023-08-14T06:50:17.290Z,13536.00
2023-08-14T06:51:17.336Z,18809.00
2023-08-14T06:52:17.768Z,21196.00
2023-08-14T06:53:17.259Z,23123.00
2023-08-14T06:54:17.400Z,18725.00
2023-08-14T06:55:17.232Z,16987.00
2023-08-14T06:56:17.228Z,25754.00
2023-08-14T06:57:17.225Z,22855.00
2023-08-14T06:58:17.245Z,27857.00
2023-08-14T06:59:17.181Z,24862.00
2023-08-14T07:00:17.211Z,26410.00
2023-08-14T07:01:17.316Z,20707.00
2023-08-14T07:02:17.434Z,20882.00
2023-08-14T07:03:17.305Z,18284.00
2023-08-14T07:04:17.122Z,18247.00
2023-08-14T07:05:18.438Z,16145.00
2023-08-14T07:06:17.116Z,24504.00
2023-08-14T07:07:17.105Z,24689.00
2023-08-14T07:08:17.153Z,26627.00
2023-08-14T07:09:17.060Z,24935.00
2023-08-14T07:10:19.681Z,28269.00
2023-08-14T07:11:17.047Z,21693.00
2023-08-14T07:12:17.271Z,33213.00
2023-08-14T07:13:17.035Z,20417.00
2023-08-14T07:14:17.031Z,30981.00
2023-08-14T07:15:16.991Z,29885.00
2023-08-14T07:16:17.054Z,27681.00
2023-08-14T07:17:17.116Z,34739.00
2023-08-14T07:18:16.971Z,30483.00
2023-08-14T07:19:16.970Z,34014.00
2023-08-14T07:20:16.917Z,23809.00
2023-08-14T07:21:16.927Z,26026.00
2023-08-14T07:22:17.198Z,25711.00
2023-08-14T07:23:16.897Z,20686.00
2023-08-14T07:24:16.905Z,31010.00
2023-08-14T07:25:16.878Z,22686.00
2023-08-14T07:26:16.973Z,21578.00
2023-08-14T07:27:16.865Z,23027.00
2023-08-14T07:28:16.839Z,22707.00
2023-08-14T07:29:19.684Z,22167.00
2023-08-14T07:30:16.839Z,21395.00
2023-08-14T07:31:16.850Z,18276.00
2023-08-14T07:32:17.222Z,21041.00
2023-08-14T07:33:16.816Z,22206.00
2023-08-14T07:34:16.770Z,18171.00
2023-08-14T07:35:16.751Z,17895.00
2023-08-14T07:36:16.785Z,15800.00
2023-08-14T07:37:16.745Z,14719.00
2023-08-14T07:38:16.749Z,14022.00
2023-08-14T07:39:17.604Z,13731.00
2023-08-14T07:40:16.691Z,13631.00
2023-08-14T07:41:16.672Z,13519.00
2023-08-14T07:42:16.940Z,13413.00
2023-08-14T07:43:16.667Z,13507.00
2023-08-14T07:44:16.634Z,13870.00
2023-08-14T07:45:16.614Z,14362.00
2023-08-14T07:46:16.657Z,14958.00
2023-08-14T07:47:16.640Z,15466.00
2023-08-14T07:48:16.648Z,15561.00
2023-08-14T07:49:16.569Z,15767.00
2023-08-14T07:50:16.627Z,15400.00
2023-08-14T07:51:16.558Z,15371.00
2023-08-14T07:52:16.932Z,15885.00
2023-08-14T07:53:16.518Z,16699.00
2023-08-14T07:54:16.519Z,17569.00
2023-08-14T07:55:16.482Z,19176.00
2023-08-14T07:56:16.469Z,18524.00
2023-08-14T07:57:16.461Z,21550.00
2023-08-14T07:58:16.451Z,21917.00
2023-08-14T07:59:16.454Z,21839.00
2023-08-14T08:00:16.461Z,26081.00
2023-08-14T08:01:16.522Z,23701.00
2023-08-14T08:02:17.487Z,23157.00
2023-08-14T08:03:16.412Z,21958.00
2023-08-14T08:05:18.686Z,21673.00
2023-08-14T08:06:16.380Z,22828.00
2023-08-14T08:07:26.191Z,26214.00
2023-08-14T08:08:22.859Z,23543.00
2023-08-14T08:09:16.293Z,27724.00
2023-08-14T08:10:16.316Z,23695.00
2023-08-14T08:11:16.295Z,30585.00
2023-08-14T08:12:16.813Z,23260.00
2023-08-14T08:13:16.245Z,23852.00
2023-08-14T08:14:16.237Z,20651.00
2023-08-14T08:15:16.229Z,38525.00
2023-08-14T08:16:16.352Z,18342.00
2023-08-14T08:17:16.200Z,76565.00
2023-08-14T08:18:16.219Z,80429.00
2023-08-14T08:19:16.252Z,77490.00
2023-08-14T08:20:16.168Z,67417.00
2023-08-14T08:21:16.189Z,28647.00
2023-08-14T08:22:16.159Z,19958.00
2023-08-14T08:23:16.185Z,73545.00
2023-08-14T08:24:16.121Z,75003.00
2023-08-14T08:25:16.126Z,71810.00
2023-08-14T08:26:16.508Z,37517.00
2023-08-14T08:27:16.083Z,27549.00
2023-08-14T08:28:16.078Z,23366.00
2023-08-14T08:29:16.051Z,21688.00
2023-08-14T08:30:16.081Z,19242.00
2023-08-14T08:31:16.043Z,17335.00
2023-08-14T08:32:16.314Z,16041.00
2023-08-14T08:33:16.104Z,15355.00
2023-08-14T08:34:17.205Z,14043.00
2023-08-14T08:35:15.973Z,9457.00
2023-08-14T08:36:16.028Z,23601.00
2023-08-14T08:37:15.951Z,18382.00
2023-08-14T08:38:15.952Z,31445.00
2023-08-14T08:39:19.556Z,13457.00
2023-08-14T08:40:15.986Z,77274.00
2023-08-14T08:41:15.905Z,72183.00
2023-08-14T08:43:15.885Z,79866.00
2023-08-14T08:44:15.903Z,79290.00
2023-08-14T08:45:15.866Z,81371.00
2023-08-14T08:46:15.909Z,79691.00
2023-08-14T08:47:15.844Z,78733.00
2023-08-14T08:48:15.931Z,82171.00
2023-08-14T08:49:15.821Z,81074.00
2023-08-14T08:50:15.797Z,79465.00
2023-08-14T08:51:15.813Z,75508.00
2023-08-14T08:52:16.020Z,78863.00
2023-08-14T08:53:22.419Z,79389.00
2023-08-14T08:54:15.752Z,78369.00
2023-08-14T08:55:16.767Z,77784.00
2023-08-14T08:56:15.795Z,78215.00
2023-08-14T08:57:15.853Z,81409.00
2023-08-14T08:58:26.262Z,80401.00
2023-08-14T08:59:15.684Z,78656.00
2023-08-14T09:00:15.704Z,76774.00
2023-08-14T09:01:15.846Z,76130.00
2023-08-14T09:02:33.237Z,76817.00
2023-08-14T09:03:15.745Z,80500.00
2023-08-14T09:04:15.763Z,81974.00
2023-08-14T09:05:17.176Z,80171.00
2023-08-14T09:06:15.619Z,82762.00
2023-08-14T09:07:15.613Z,78025.00
2023-08-14T09:08:15.614Z,79852.00
2023-08-14T09:09:15.564Z,81572.00
2023-08-14T09:10:16.165Z,81744.00
2023-08-14T09:11:15.564Z,82150.00
2023-08-14T09:12:15.564Z,82178.00
2023-08-14T09:13:15.804Z,81460.00
2023-08-14T09:14:16.092Z,81593.00
2023-08-14T09:15:15.497Z,82266.00
2023-08-14T09:16:15.571Z,79934.00
2023-08-14T09:17:16.560Z,79483.00
2023-08-14T09:18:15.458Z,81028.00
2023-08-14T09:19:15.490Z,82472.00
2023-08-14T09:23:04.429Z,82014.00
2023-08-14T09:28:10.464Z,77851.00
2023-08-14T09:29:12.957Z,77295.00
2023-08-14T09:30:41.465Z,81370.00
2023-08-14T09:31:13.766Z,82332.00
2023-08-14T09:35:07.819Z,80748.00
2023-08-14T09:36:08.021Z,82256.00
2023-08-14T09:37:31.936Z,81230.00
2023-08-14T09:38:22.812Z,80836.00
2023-08-14T09:39:20.175Z,58688.00
2023-08-14T09:40:08.093Z,6644.00
2023-08-14T09:41:43.614Z,79465.00
2023-08-14T09:42:09.647Z,79646.00
2023-08-14T09:43:09.179Z,82386.00
2023-08-14T09:49:16.289Z,81349.00
2023-08-14T09:50:16.907Z,81526.00
2023-08-14T09:51:16.003Z,81124.00
2023-08-14T09:52:16.060Z,81334.00
2023-08-14T09:53:15.981Z,80036.00
2023-08-14T09:54:15.981Z,80054.00
2023-08-14T09:55:23.554Z,82013.00
2023-08-14T09:56:15.942Z,78665.00
2023-08-14T09:57:19.910Z,80316.00
2023-08-14T09:58:15.935Z,79561.00
2023-08-14T09:59:16.272Z,80391.00
2023-08-14T10:01:52.812Z,80906.00
2023-08-14T10:02:52.816Z,80961.00
2023-08-14T10:03:54.701Z,80925.00
2023-08-14T10:04:51.893Z,81591.00
2023-08-14T10:05:51.942Z,79741.00
2023-08-14T10:06:51.904Z,79803.00
2023-08-14T10:09:15.835Z,81245.00
2023-08-14T10:10:16.794Z,81529.00
2023-08-14T10:11:19.826Z,82270.00
2023-08-14T10:12:19.803Z,79317.00
2023-08-14T10:13:19.321Z,75015.00
2023-08-14T10:14:16.763Z,75814.00
2023-08-14T10:15:18.464Z,80900.00
2023-08-14T10:16:16.730Z,82394.00
2023-08-14T10:17:31.341Z,77868.00
2023-08-14T10:18:16.736Z,74869.00
2023-08-14T10:19:16.687Z,74890.00
2023-08-14T10:20:16.728Z,80899.00
2023-08-14T10:21:17.439Z,77318.00
2023-08-14T10:22:16.869Z,75306.00
2023-08-14T10:23:23.312Z,75557.00
2023-08-14T10:24:21.894Z,75412.00
2023-08-14T10:25:16.600Z,75250.00
2023-08-14T10:26:18.000Z,75520.00
2023-08-14T10:27:17.378Z,75836.00
2023-08-14T10:28:16.580Z,75411.00
2023-08-14T10:29:16.588Z,75818.00
2023-08-14T10:30:19.358Z,77940.00
2023-08-14T10:31:16.557Z,72187.00
2023-08-14T10:32:17.000Z,77521.00
2023-08-14T10:33:16.563Z,81109.00
2023-08-14T10:35:09.365Z,75018.00
2023-08-14T10:35:16.489Z,75577.00
2023-08-14T10:36:16.530Z,74992.00
2023-08-14T10:37:16.480Z,74957.00
2023-08-14T10:38:25.354Z,74904.00
2023-08-14T10:39:31.349Z,79675.00
2023-08-14T10:40:16.436Z,82406.00
2023-08-14T10:41:16.468Z,82746.00
2023-08-14T10:42:38.216Z,77826.00
2023-08-14T10:43:24.634Z,76850.00
2023-08-14T10:44:16.389Z,79756.00
2023-08-14T10:45:16.375Z,79795.00
2023-08-14T10:46:28.672Z,75732.00
2023-08-14T10:47:16.454Z,82286.00
2023-08-14T10:48:22.875Z,79644.00
2023-08-14T10:49:16.688Z,76026.00
2023-08-14T10:50:16.320Z,78315.00
2023-08-14T10:51:16.315Z,74845.00
2023-08-14T10:52:28.862Z,74598.00
2023-08-14T10:53:24.687Z,74989.00
2023-08-14T10:54:17.749Z,75206.00
2023-08-14T10:55:17.383Z,74925.00
2023-08-14T10:56:29.787Z,75012.00
2023-08-14T10:57:16.498Z,74863.00
2023-08-14T10:58:18.870Z,74924.00
2023-08-14T11:05:17.385Z,75499.00
2023-08-14T11:09:58.350Z,75389.00
2023-08-14T11:11:02.250Z,75805.00
2023-08-14T11:13:19.497Z,76293.00
2023-08-14T11:18:26.654Z,75042.00
2023-08-14T11:19:27.700Z,75189.00
2023-08-14T11:20:27.609Z,74726.00
2023-08-14T11:21:32.194Z,75394.00
2023-08-14T11:23:38.284Z,28686.00
2023-08-14T11:24:46.087Z,27139.00
2023-08-14T11:25:39.293Z,9898.00
2023-08-14T11:26:39.240Z,77164.00
2023-08-14T11:27:39.213Z,74785.00
2023-08-14T11:30:39.181Z,75070.00
2023-08-14T11:32:57.472Z,28889.00
2023-08-14T11:33:58.382Z,8779.00
2023-08-14T11:37:24.854Z,75021.00
2023-08-14T11:38:25.888Z,74872.00
2023-08-14T11:39:25.660Z,76830.00
2023-08-14T11:40:25.634Z,77683.00
2023-08-14T11:41:31.506Z,76464.00
2023-08-14T11:42:29.057Z,74709.00
2023-08-14T11:43:33.395Z,78960.00
2023-08-14T11:44:42.725Z,68612.00
2023-08-14T11:45:28.452Z,34561.00
2023-08-14T11:46:25.559Z,26336.00
2023-08-14T11:47:31.363Z,81106.00
2023-08-14T11:48:32.689Z,76373.00
2023-08-14T11:49:36.792Z,73932.00
2023-08-14T11:50:25.533Z,80640.00
2023-08-14T11:51:25.497Z,74137.00
2023-08-14T11:52:25.710Z,77990.00
2023-08-14T11:53:25.467Z,80507.00
2023-08-14T11:54:26.918Z,79534.00
2023-08-14T11:55:25.428Z,67989.00
2023-08-14T11:56:26.100Z,36984.00
2023-08-14T11:57:25.434Z,34141.00
2023-08-14T11:58:25.437Z,10308.00
2023-08-14T11:59:25.515Z,65007.00
2023-08-14T12:00:30.139Z,31114.00
2023-08-14T12:01:25.390Z,9890.00
2023-08-14T12:02:25.406Z,74905.00
2023-08-14T12:03:25.405Z,77128.00
2023-08-14T12:04:25.354Z,77781.00
2023-08-14T12:05:33.033Z,74436.00
2023-08-14T12:07:45.974Z,78735.00
2023-08-14T12:08:46.775Z,66078.00
2023-08-14T12:09:48.618Z,30119.00
2023-08-14T12:10:57.852Z,36400.00
2023-08-14T12:14:05.055Z,39595.00
2023-08-14T12:16:53.343Z,78079.00
2023-08-14T12:20:24.005Z,82461.00
2023-08-14T12:23:34.937Z,78860.00
2023-08-14T12:24:25.152Z,68571.00
2023-08-14T12:25:21.504Z,12532.00
2023-08-14T12:26:21.879Z,76526.00
2023-08-14T12:27:21.941Z,81672.00
2023-08-14T12:28:23.514Z,67084.00
2023-08-14T12:29:24.408Z,21920.00
2023-08-14T12:30:22.421Z,80517.00
2023-08-14T12:31:44.221Z,82162.00
2023-08-14T12:32:21.538Z,74517.00
2023-08-14T12:33:21.416Z,83430.00
2023-08-14T12:34:21.419Z,78714.00
2023-08-14T12:35:21.394Z,78968.00
2023-08-14T12:36:30.787Z,81782.00
2023-08-14T12:37:21.754Z,80477.00
2023-08-14T12:38:22.537Z,81164.00
2023-08-14T12:39:30.074Z,82098.00
2023-08-14T12:47:18.685Z,75448.00
2023-08-14T12:48:30.316Z,81568.00
2023-08-14T12:49:30.245Z,76904.00
2023-08-14T12:50:22.300Z,71952.00
2023-08-14T12:51:25.153Z,79333.00
2023-08-14T12:52:28.878Z,78625.00
2023-08-14T12:53:50.716Z,80482.00
2023-08-14T12:54:18.208Z,80738.00
2023-08-14T12:55:18.890Z,71897.00
2023-08-14T12:56:19.045Z,76449.00
2023-08-14T12:57:16.983Z,82019.00
2023-08-14T12:59:37.236Z,73774.00
2023-08-14T13:00:23.633Z,73394.00
2023-08-14T13:08:31.686Z,38499.00
2023-08-14T13:09:32.912Z,32647.00
2023-08-14T13:25:02.017Z,71032.00
2023-08-14T13:25:32.519Z,13151.00
2023-08-14T13:26:09.368Z,79426.00
2023-08-14T13:27:11.587Z,81472.00
2023-08-14T13:28:59.830Z,80723.00
2023-08-14T13:29:19.289Z,76482.00
2023-08-14T13:30:30.218Z,81195.00
2023-08-14T13:31:30.226Z,76737.00
2023-08-14T13:32:09.182Z,73535.00
2023-08-14T13:33:09.189Z,63331.00
2023-08-14T13:34:15.283Z,23485.00
2023-08-14T13:35:17.416Z,23165.00
2023-08-14T13:36:31.360Z,23702.00
2023-08-14T13:39:19.362Z,27166.00
2023-08-14T13:40:37.467Z,24915.00
2023-08-14T13:48:20.595Z,22768.00
2023-08-14T13:49:20.839Z,7378.00
2023-08-14T13:50:31.797Z,81320.00
2023-08-14T13:51:23.744Z,81203.00
2023-08-14T13:52:20.177Z,65416.00
2023-08-14T13:53:21.382Z,12943.00
2023-08-14T13:54:27.215Z,79050.00
2023-08-14T13:55:34.745Z,80158.00